createdAt,value
2023-02-22T00:02:27.223Z,4.84
2023-02-22T00:05:24.917Z,4.79
2023-02-22T00:08:24.922Z,4.72
2023-02-22T00:11:21.751Z,4.69
2023-02-22T00:14:20.440Z,4.66
2023-02-22T00:17:17.361Z,4.54
2023-02-22T00:20:19.879Z,4.43
2023-02-22T00:23:21.761Z,4.40
2023-02-22T00:26:23.408Z,4.29
2023-02-22T00:29:20.354Z,4.32
2023-02-22T00:32:17.337Z,4.36
2023-02-22T00:35:16.788Z,4.21
2023-02-22T00:38:19.029Z,4.11
2023-02-22T00:41:16.194Z,4.13
2023-02-22T00:44:14.631Z,4.20
2023-02-22T00:47:11.516Z,4.14
2023-02-22T00:50:10.099Z,3.97
2023-02-22T00:53:07.718Z,3.84
2023-02-22T00:56:04.970Z,4.02
2023-02-22T00:59:01.997Z,3.83
2023-02-22T01:01:58.877Z,3.72
2023-02-22T01:04:56.491Z,3.82
2023-02-22T01:07:56.245Z,3.75
2023-02-22T01:10:53.083Z,3.79
2023-02-22T01:13:49.890Z,3.75
2023-02-22T01:16:46.851Z,3.69
2023-02-22T01:19:43.734Z,3.52
2023-02-22T01:22:43.109Z,3.51
2023-02-22T01:25:40.052Z,3.44
2023-02-22T01:28:38.777Z,3.39
2023-02-22T01:31:35.666Z,3.26
2023-02-22T01:34:33.111Z,3.39
2023-02-22T01:37:29.935Z,3.25
2023-02-22T01:40:34.442Z,3.25
2023-02-22T01:43:32.751Z,3.21
2023-02-22T01:46:31.538Z,3.12
2023-02-22T01:49:49.945Z,3.17
2023-02-22T01:52:46.926Z,3.17
2023-02-22T01:55:46.764Z,3.09
2023-02-22T01:58:54.213Z,3.06
2023-02-22T02:01:51.084Z,3.04
2023-02-22T02:04:49.107Z,3.09
2023-02-22T02:07:46.616Z,3.10
2023-02-22T02:10:44.400Z,3.08
2023-02-22T02:13:41.585Z,3.01
2023-02-22T02:16:47.780Z,3.13
2023-02-22T02:20:13.366Z,3.16
2023-02-22T02:23:55.168Z,3.26
2023-02-22T02:27:18.460Z,3.39
2023-02-22T02:31:06.320Z,3.36
2023-02-22T02:34:14.019Z,3.51
2023-02-22T02:37:30.245Z,3.56
2023-02-22T02:40:58.467Z,3.61
2023-02-22T02:43:57.720Z,3.66
2023-02-22T02:47:17.449Z,3.82
2023-02-22T02:50:47.847Z,3.86
2023-02-22T02:53:48.534Z,3.87
2023-02-22T02:56:45.886Z,3.81
2023-02-22T02:59:42.969Z,3.81
2023-02-22T03:03:08.127Z,3.67
2023-02-22T03:06:46.315Z,3.83
2023-02-22T03:10:23.249Z,3.72
2023-02-22T03:13:51.917Z,3.66
2023-02-22T03:17:12.174Z,3.53
2023-02-22T03:20:40.396Z,3.47
2023-02-22T03:23:56.940Z,3.23
2023-02-22T03:27:02.942Z,3.28
2023-02-22T03:30:07.671Z,3.28
2023-02-22T03:33:16.569Z,3.31
2023-02-22T03:36:26.677Z,3.12
2023-02-22T03:39:30.921Z,3.19
2023-02-22T03:42:37.592Z,3.21
2023-02-22T03:45:36.474Z,3.20
2023-02-22T03:48:58.380Z,3.23
2023-02-22T03:51:55.819Z,3.29
2023-02-22T03:54:56.052Z,3.27
2023-02-22T03:58:00.982Z,3.25
2023-02-22T04:00:58.104Z,3.15
2023-02-22T04:03:54.937Z,3.23
2023-02-22T04:06:52.583Z,3.14
2023-02-22T04:09:49.390Z,3.19
2023-02-22T04:12:46.354Z,3.00
2023-02-22T04:15:43.221Z,3.09
2023-02-22T04:18:40.080Z,2.92
2023-02-22T04:21:36.906Z,2.98
2023-02-22T04:24:33.730Z,2.76
2023-02-22T04:27:30.582Z,2.74
2023-02-22T04:30:30.090Z,2.78
2023-02-22T04:33:26.991Z,2.61
2023-02-22T04:36:23.820Z,2.68
2023-02-22T04:39:21.042Z,2.42
2023-02-22T04:42:17.942Z,2.64
2023-02-22T04:45:14.994Z,2.49
2023-02-22T04:48:12.075Z,2.33
2023-02-22T04:51:09.663Z,2.27
2023-02-22T04:54:06.754Z,2.42
2023-02-22T04:57:03.784Z,2.17
2023-02-22T05:00:00.643Z,2.22
2023-02-22T05:02:57.706Z,2.14
2023-02-22T05:05:54.944Z,2.06
2023-02-22T05:08:51.751Z,2.07
2023-02-22T05:11:49.336Z,2.18
2023-02-22T05:14:46.170Z,2.32
2023-02-22T05:17:43.082Z,2.19
2023-02-22T05:20:39.894Z,2.19
2023-02-22T05:23:36.793Z,1.96
2023-02-22T05:26:34.150Z,1.96
2023-02-22T05:29:31.283Z,2.01
2023-02-22T05:32:28.126Z,1.83
2023-02-22T05:35:25.830Z,2.03
2023-02-22T05:38:23.002Z,1.92
2023-02-22T05:41:20.461Z,1.96
2023-02-22T05:44:17.328Z,1.78
2023-02-22T05:47:14.194Z,1.83
2023-02-22T05:50:11.507Z,1.87
2023-02-22T05:53:08.430Z,1.83
2023-02-22T05:56:05.802Z,1.85
2023-02-22T05:59:02.803Z,1.75
2023-02-22T06:01:59.716Z,1.75
2023-02-22T06:04:56.591Z,1.78
2023-02-22T06:07:54.169Z,1.84
2023-02-22T06:10:50.995Z,1.66
2023-02-22T06:13:52.981Z,1.89
2023-02-22T06:17:00.928Z,1.96
2023-02-22T06:19:57.950Z,1.79
2023-02-22T06:22:57.700Z,1.90
2023-02-22T06:25:54.629Z,2.00
2023-02-22T06:28:51.486Z,1.99
2023-02-22T06:31:48.425Z,1.95
2023-02-22T06:34:45.782Z,2.06
2023-02-22T06:37:42.724Z,2.04
2023-02-22T06:40:40.026Z,2.30
2023-02-22T06:43:36.845Z,2.09
2023-02-22T06:46:33.918Z,2.34
2023-02-22T06:49:31.007Z,2.43
2023-02-22T06:52:28.005Z,2.45
2023-02-22T06:55:32.012Z,2.38
2023-02-22T06:58:29.187Z,2.68
2023-02-22T07:01:26.257Z,2.95
2023-02-22T07:04:23.119Z,2.99
2023-02-22T07:07:23.341Z,3.06
2023-02-22T07:10:29.528Z,3.12
2023-02-22T07:13:29.734Z,3.29
2023-02-22T07:16:26.589Z,3.40
2023-02-22T07:19:24.662Z,3.47
2023-02-22T07:22:21.629Z,3.63
2023-02-22T07:25:19.460Z,3.81
2023-02-22T07:28:16.466Z,3.97
2023-02-22T07:31:13.357Z,4.10
2023-02-22T07:34:10.176Z,4.19
2023-02-22T07:37:06.989Z,4.44
2023-02-22T07:40:04.118Z,4.48
2023-02-22T07:43:22.033Z,4.70
2023-02-22T07:46:18.828Z,4.76
2023-02-22T07:49:16.374Z,4.79
2023-02-22T07:52:13.182Z,5.05
2023-02-22T07:55:10.111Z,5.17
2023-02-22T07:58:09.407Z,5.26
2023-02-22T08:01:06.300Z,5.40
2023-02-22T08:04:03.128Z,5.33
2023-02-22T08:06:59.938Z,5.48
2023-02-22T08:09:57.267Z,5.61
2023-02-22T08:12:56.070Z,5.71
2023-02-22T08:15:54.431Z,5.79
2023-02-22T08:18:51.269Z,5.74
2023-02-22T08:21:48.134Z,5.88
2023-02-22T08:24:44.947Z,6.06
2023-02-22T08:27:42.583Z,6.16
2023-02-22T08:30:42.905Z,6.32
2023-02-22T08:33:39.789Z,6.41
2023-02-22T08:36:41.254Z,6.60
2023-02-22T08:39:38.228Z,6.80
2023-02-22T08:42:35.037Z,6.96
2023-02-22T08:45:32.385Z,7.21
2023-02-22T08:48:29.335Z,7.41
2023-02-22T08:51:27.831Z,7.55
2023-02-22T08:54:24.859Z,7.82
2023-02-22T08:57:22.269Z,7.76
2023-02-22T09:00:24.680Z,7.91
2023-02-22T09:03:22.135Z,8.23
2023-02-22T09:06:19.422Z,8.33
2023-02-22T09:09:18.395Z,9.38
2023-02-22T09:12:15.229Z,9.87
2023-02-22T09:15:13.432Z,9.20
2023-02-22T09:18:14.651Z,9.94
2023-02-22T09:21:12.525Z,11.03
2023-02-22T09:24:09.680Z,10.71
2023-02-22T09:27:07.513Z,12.03
2023-02-22T09:30:04.999Z,14.40
2023-02-22T09:33:21.733Z,15.83
2023-02-22T09:36:21.852Z,14.95
2023-02-22T09:39:18.972Z,15.02
2023-02-22T09:42:25.836Z,15.23
2023-02-22T09:45:36.920Z,14.96
2023-02-22T09:48:40.046Z,15.15
2023-02-22T09:51:58.739Z,14.71
2023-02-22T09:55:35.400Z,13.44
2023-02-22T09:58:46.036Z,14.78
2023-02-22T10:01:48.933Z,15.79
2023-02-22T10:05:09.444Z,16.20
2023-02-22T10:08:19.090Z,16.56
2023-02-22T10:12:00.147Z,16.09
2023-02-22T10:15:16.137Z,15.78
2023-02-22T10:18:50.055Z,17.38
2023-02-22T10:22:34.552Z,16.68
2023-02-22T10:25:37.815Z,16.06
2023-02-22T10:29:03.327Z,16.36
2023-02-22T10:32:04.721Z,16.06
2023-02-22T10:35:05.498Z,17.06
2023-02-22T10:38:35.010Z,16.32
2023-02-22T10:41:38.171Z,16.18
2023-02-22T10:44:41.111Z,14.19
2023-02-22T10:47:38.025Z,14.62
2023-02-22T10:50:37.320Z,14.47
2023-02-22T10:53:37.921Z,15.19
2023-02-22T10:56:34.874Z,15.07
2023-02-22T10:59:35.593Z,15.33
2023-02-22T11:02:35.405Z,14.41
2023-02-22T11:05:39.834Z,15.57
2023-02-22T11:08:36.651Z,15.01
2023-02-22T11:11:34.113Z,15.43
2023-02-22T11:14:31.108Z,16.06
2023-02-22T11:17:34.535Z,16.38
2023-02-22T11:20:38.564Z,16.09
2023-02-22T11:23:39.000Z,15.55
2023-02-22T11:26:49.020Z,15.99
2023-02-22T11:29:50.865Z,15.68
2023-02-22T11:33:03.219Z,16.50
2023-02-22T11:36:09.376Z,16.27
2023-02-22T11:39:35.596Z,16.03
2023-02-22T11:42:32.758Z,16.64
2023-02-22T11:45:29.819Z,15.25
2023-02-22T11:48:28.589Z,15.74
2023-02-22T11:51:53.029Z,15.89
2023-02-22T11:55:42.316Z,16.86
2023-02-22T11:59:36.730Z,16.42
2023-02-22T12:02:59.853Z,16.00
2023-02-22T12:06:08.183Z,17.15
2023-02-22T12:09:34.783Z,16.00
2023-02-22T12:12:40.461Z,15.91
2023-02-22T12:16:06.813Z,16.01
2023-02-22T12:19:38.003Z,16.66
2023-02-22T12:22:44.365Z,17.26
2023-02-22T12:26:16.621Z,16.76
2023-02-22T12:29:28.876Z,16.30
2023-02-22T12:32:44.562Z,17.23
2023-02-22T12:35:50.428Z,16.69
2023-02-22T12:38:58.962Z,17.24
2023-02-22T12:41:58.048Z,16.53
2023-02-22T12:45:05.132Z,16.58
2023-02-22T12:48:32.156Z,16.07
2023-02-22T12:52:21.204Z,16.75
2023-02-22T12:55:51.228Z,16.90
2023-02-22T12:59:12.523Z,16.89
2023-02-22T13:02:23.818Z,16.44
2023-02-22T13:05:21.404Z,16.51
2023-02-22T13:08:36.267Z,16.20
2023-02-22T13:12:03.783Z,15.74
2023-02-22T13:15:36.216Z,15.23
2023-02-22T13:18:48.031Z,15.58
2023-02-22T13:22:06.520Z,15.61
2023-02-22T13:25:28.314Z,15.48
2023-02-22T13:28:36.857Z,15.61
2023-02-22T13:32:03.623Z,15.51
2023-02-22T13:35:07.561Z,15.33
2023-02-22T13:38:23.855Z,16.12
2023-02-22T13:42:09.359Z,15.67
2023-02-22T13:46:00.096Z,15.73
2023-02-22T13:49:30.033Z,15.62
2023-02-22T13:52:31.296Z,15.64
2023-02-22T13:55:34.454Z,15.22
2023-02-22T13:58:31.358Z,15.54
2023-02-22T14:01:50.447Z,15.26
2023-02-22T14:04:48.168Z,15.21
2023-02-22T14:07:49.151Z,15.11
2023-02-22T14:10:55.337Z,15.38
2023-02-22T14:13:53.631Z,15.41
2023-02-22T14:17:25.252Z,15.35
2023-02-22T14:20:35.196Z,15.07
2023-02-22T14:23:41.320Z,14.92
2023-02-22T14:26:40.172Z,15.00
2023-02-22T14:29:37.956Z,14.51
2023-02-22T14:32:35.783Z,14.67
2023-02-22T14:35:49.492Z,15.02
2023-02-22T14:38:48.942Z,14.56
2023-02-22T14:42:12.525Z,14.60
2023-02-22T14:45:12.742Z,14.58
2023-02-22T14:48:58.263Z,14.18
2023-02-22T14:52:08.078Z,14.45
2023-02-22T14:55:23.604Z,13.56
2023-02-22T14:58:46.591Z,13.73
2023-02-22T15:01:58.387Z,13.91
2023-02-22T15:05:05.132Z,13.75
2023-02-22T15:08:06.496Z,13.77
2023-02-22T15:11:03.449Z,14.01
2023-02-22T15:14:02.874Z,13.70
2023-02-22T15:17:06.536Z,13.70
2023-02-22T15:20:10.344Z,13.50
2023-02-22T15:23:07.320Z,13.19
2023-02-22T15:26:04.383Z,12.52
2023-02-22T15:29:06.880Z,12.53
2023-02-22T15:32:27.320Z,12.56
2023-02-22T15:35:29.705Z,12.59
2023-02-22T15:38:30.732Z,12.90
2023-02-22T15:41:32.811Z,12.80
2023-02-22T15:44:34.203Z,12.24
2023-02-22T15:47:34.330Z,12.00
2023-02-22T15:50:33.956Z,11.50
2023-02-22T15:53:48.415Z,11.42
2023-02-22T15:56:55.481Z,11.28
2023-02-22T15:59:56.464Z,11.07
2023-02-22T16:02:57.907Z,11.04
2023-02-22T16:05:59.306Z,10.61
2023-02-22T16:08:59.354Z,10.76
2023-02-22T16:12:27.650Z,10.52
2023-02-22T16:15:24.556Z,10.29
2023-02-22T16:18:36.999Z,10.24
2023-02-22T16:21:58.405Z,10.58
2023-02-22T16:25:37.249Z,10.00
2023-02-22T16:28:35.641Z,9.94
2023-02-22T16:31:39.222Z,9.59
2023-02-22T16:34:36.180Z,9.58
2023-02-22T16:37:33.052Z,9.41
2023-02-22T16:40:44.543Z,9.08
2023-02-22T16:43:46.166Z,8.84
2023-02-22T16:46:44.128Z,8.73
2023-02-22T16:49:40.938Z,8.55
2023-02-22T16:52:40.521Z,8.50
2023-02-22T16:55:37.401Z,8.44
2023-02-22T16:58:39.142Z,8.24
2023-02-22T17:01:36.022Z,8.04
2023-02-22T17:04:33.643Z,8.05
2023-02-22T17:07:30.848Z,8.06
2023-02-22T17:10:28.990Z,8.01
2023-02-22T17:13:27.520Z,7.85
2023-02-22T17:16:24.608Z,7.78
2023-02-22T17:19:26.439Z,7.77
2023-02-22T17:22:23.310Z,7.97
2023-02-22T17:25:25.464Z,7.75
2023-02-22T17:28:24.577Z,7.70
2023-02-22T17:31:26.494Z,7.60
2023-02-22T17:34:23.432Z,7.54
2023-02-22T17:37:20.274Z,7.82
2023-02-22T17:40:17.634Z,7.34
2023-02-22T17:43:15.659Z,7.54
2023-02-22T17:46:13.074Z,7.34
2023-02-22T17:49:09.888Z,7.32
2023-02-22T17:52:06.691Z,7.19
2023-02-22T17:55:06.386Z,7.04
2023-02-22T17:58:03.304Z,7.07
2023-02-22T18:01:00.941Z,7.19
2023-02-22T18:04:03.009Z,7.03
2023-02-22T18:06:59.944Z,7.13
2023-02-22T18:09:56.774Z,7.01
2023-02-22T18:12:55.103Z,6.93
2023-02-22T18:15:52.220Z,6.88
2023-02-22T18:18:49.728Z,6.90
2023-02-22T18:21:46.578Z,6.84
2023-02-22T18:24:43.466Z,6.84
2023-02-22T18:27:43.319Z,6.58
2023-02-22T18:30:41.085Z,6.66
2023-02-22T18:33:38.050Z,6.76
2023-02-22T18:36:34.873Z,6.70
2023-02-22T18:39:40.840Z,6.73
2023-02-22T18:42:39.864Z,6.62
2023-02-22T18:45:37.399Z,6.63
2023-02-22T18:48:34.365Z,6.68
2023-02-22T18:51:31.273Z,6.51
2023-02-22T18:54:28.160Z,6.45
2023-02-22T18:57:25.462Z,6.48
2023-02-22T19:00:28.615Z,6.39
2023-02-22T19:03:26.174Z,6.45
2023-02-22T19:06:23.484Z,6.40
2023-02-22T19:09:20.582Z,6.36
2023-02-22T19:12:19.066Z,6.36
2023-02-22T19:15:16.070Z,6.33
2023-02-22T19:18:13.285Z,6.26
2023-02-22T19:21:12.172Z,6.30
2023-02-22T19:24:09.201Z,6.31
2023-02-22T19:27:06.414Z,6.21
2023-02-22T19:30:04.655Z,6.28
2023-02-22T19:33:04.559Z,6.24
2023-02-22T19:36:01.391Z,6.21
2023-02-22T19:39:01.890Z,6.22
2023-02-22T19:41:59.437Z,6.31
2023-02-22T19:44:56.237Z,6.34
2023-02-22T19:47:55.392Z,6.22
2023-02-22T19:50:57.749Z,6.15
2023-02-22T19:54:05.179Z,6.27
2023-02-22T19:57:02.156Z,6.19
2023-02-22T19:59:58.975Z,6.20
2023-02-22T20:03:05.698Z,6.16
2023-02-22T20:06:02.698Z,6.25
2023-02-22T20:08:59.500Z,6.16
2023-02-22T20:11:56.355Z,6.17
2023-02-22T20:14:53.181Z,6.22
2023-02-22T20:17:51.492Z,6.24
2023-02-22T20:20:48.820Z,6.22
2023-02-22T20:23:45.642Z,6.17
2023-02-22T20:26:43.227Z,6.25
2023-02-22T20:29:40.552Z,6.24
2023-02-22T20:32:38.262Z,6.30
2023-02-22T20:35:35.168Z,6.30
2023-02-22T20:38:31.977Z,6.25
2023-02-22T20:41:35.402Z,6.33
2023-02-22T20:44:32.271Z,6.23
2023-02-22T20:47:29.096Z,6.25
2023-02-22T20:50:26.059Z,6.16
2023-02-22T20:53:23.289Z,6.04
2023-02-22T20:56:24.315Z,6.25
2023-02-22T20:59:21.801Z,6.18
2023-02-22T21:02:18.644Z,6.16
2023-02-22T21:05:15.506Z,6.12
2023-02-22T21:08:15.525Z,5.96
2023-02-22T21:11:14.818Z,6.07
2023-02-22T21:14:18.132Z,6.04
2023-02-22T21:17:15.020Z,5.90
2023-02-22T21:20:12.827Z,5.88
2023-02-22T21:23:11.106Z,6.10
2023-02-22T21:26:15.627Z,6.13
2023-02-22T21:29:12.453Z,6.09
2023-02-22T21:32:10.393Z,6.16
2023-02-22T21:35:08.045Z,6.13
2023-02-22T21:38:04.865Z,6.10
2023-02-22T21:41:03.224Z,6.13
2023-02-22T21:44:00.157Z,6.08
2023-02-22T21:46:57.319Z,6.03
2023-02-22T21:49:54.135Z,6.15
2023-02-22T21:52:52.116Z,6.25
2023-02-22T21:55:50.540Z,6.21
2023-02-22T21:58:50.300Z,6.22
2023-02-22T22:01:50.637Z,6.10
2023-02-22T22:04:47.575Z,6.15
2023-02-22T22:07:44.689Z,6.28
2023-02-22T22:10:41.496Z,6.33
2023-02-22T22:13:40.353Z,6.28
2023-02-22T22:16:37.216Z,6.31
2023-02-22T22:19:41.644Z,6.40
2023-02-22T22:22:40.913Z,6.27
2023-02-22T22:25:38.236Z,6.39
2023-02-22T22:28:35.606Z,6.45
2023-02-22T22:31:33.076Z,6.45
2023-02-22T22:34:30.357Z,6.33
2023-02-22T22:37:28.123Z,6.39
2023-02-22T22:40:24.930Z,6.38
2023-02-22T22:43:22.053Z,6.36
2023-02-22T22:46:18.917Z,6.37
2023-02-22T22:49:16.599Z,6.39
2023-02-22T22:52:16.364Z,6.52
2023-02-22T22:55:13.190Z,6.47
2023-02-22T22:58:10.490Z,6.59
2023-02-22T23:01:07.764Z,6.50
2023-02-22T23:04:08.151Z,6.42
2023-02-22T23:07:06.593Z,6.29
2023-02-22T23:10:03.570Z,6.44
2023-02-22T23:13:00.471Z,6.40
2023-02-22T23:15:57.291Z,6.45
2023-02-22T23:18:54.400Z,6.47
2023-02-22T23:21:51.404Z,6.34
2023-02-22T23:24:48.422Z,6.42
2023-02-22T23:27:46.255Z,6.42
2023-02-22T23:30:43.498Z,6.42
2023-02-22T23:33:45.565Z,6.40
2023-02-22T23:36:45.210Z,6.29
2023-02-22T23:39:42.347Z,6.46
2023-02-22T23:42:39.151Z,6.30
2023-02-22T23:45:38.576Z,6.44
2023-02-22T23:48:35.805Z,6.50
2023-02-22T23:51:39.335Z,6.38
2023-02-22T23:54:40.284Z,6.30
2023-02-22T23:57:42.785Z,6.20
